createdAt,value
2022-12-09T00:00:07.614Z,68.43
2022-12-09T00:02:34.710Z,68.76
2022-12-09T00:05:01.574Z,67.90
2022-12-09T00:07:28.496Z,67.99
2022-12-09T00:09:54.977Z,67.88
2022-12-09T00:12:21.489Z,68.15
2022-12-09T00:14:48.027Z,68.39
2022-12-09T00:17:14.825Z,68.00
2022-12-09T00:19:41.440Z,67.75
2022-12-09T00:22:07.909Z,67.80
2022-12-09T00:24:34.387Z,68.16
2022-12-09T00:27:01.032Z,68.04
2022-12-09T00:29:27.523Z,68.28
2022-12-09T00:31:54.061Z,67.83
2022-12-09T00:34:20.989Z,67.98
2022-12-09T00:36:47.688Z,67.87
2022-12-09T00:39:14.323Z,68.71
2022-12-09T00:41:40.890Z,68.25
2022-12-09T00:44:07.456Z,68.01
2022-12-09T00:46:34.109Z,68.04
2022-12-09T00:49:01.126Z,68.03
2022-12-09T00:51:27.651Z,68.62
2022-12-09T00:53:55.908Z,69.21
2022-12-09T00:56:25.011Z,69.05
2022-12-09T00:58:52.345Z,69.04
2022-12-09T01:01:18.871Z,68.43
2022-12-09T01:03:45.946Z,68.33
2022-12-09T01:06:18.129Z,68.60
2022-12-09T01:08:45.954Z,69.63
2022-12-09T01:11:22.524Z,69.78
2022-12-09T01:13:51.255Z,69.63
2022-12-09T01:16:25.530Z,70.18
2022-12-09T01:18:55.354Z,70.29
2022-12-09T01:21:21.804Z,70.23
2022-12-09T01:23:48.242Z,69.85
2022-12-09T01:26:14.889Z,69.62
2022-12-09T01:28:42.519Z,69.65
2022-12-09T01:31:17.868Z,69.48
2022-12-09T01:33:45.342Z,69.16
2022-12-09T01:36:18.657Z,68.82
2022-12-09T01:38:47.241Z,68.95
2022-12-09T01:41:16.575Z,69.13
2022-12-09T01:43:43.509Z,69.32
2022-12-09T01:46:10.577Z,69.22
2022-12-09T01:48:42.872Z,69.09
2022-12-09T01:51:19.771Z,68.83
2022-12-09T01:53:50.768Z,68.66
2022-12-09T01:56:25.527Z,68.54
2022-12-09T01:58:57.638Z,68.81
2022-12-09T02:01:24.527Z,68.95
2022-12-09T02:03:51.607Z,68.68
2022-12-09T02:06:19.084Z,68.72
2022-12-09T02:08:48.810Z,68.55
2022-12-09T02:11:52.072Z,68.21
2022-12-09T02:14:27.852Z,68.50
2022-12-09T02:17:21.421Z,69.04
2022-12-09T02:20:07.201Z,69.41
2022-12-09T02:23:12.968Z,69.37
2022-12-09T02:25:48.160Z,69.25
2022-12-09T02:29:03.721Z,68.85
2022-12-09T02:32:14.278Z,69.11
2022-12-09T02:34:55.369Z,69.13
2022-12-09T02:37:35.720Z,68.95
2022-12-09T02:40:13.519Z,68.51
2022-12-09T02:42:42.619Z,68.87
2022-12-09T02:45:11.711Z,69.14
2022-12-09T02:47:47.317Z,69.35
2022-12-09T02:50:19.550Z,69.50
2022-12-09T02:52:48.556Z,69.41
2022-12-09T02:55:19.342Z,69.24
2022-12-09T02:57:52.759Z,69.22
2022-12-09T03:00:19.879Z,69.31
2022-12-09T03:02:54.461Z,68.95
2022-12-09T03:05:36.720Z,68.86
2022-12-09T03:08:15.731Z,68.84
2022-12-09T03:11:01.135Z,68.70
2022-12-09T03:13:52.748Z,68.97
2022-12-09T03:16:41.020Z,69.24
2022-12-09T03:19:23.037Z,69.50
2022-12-09T03:21:55.949Z,70.07
2022-12-09T03:24:32.662Z,70.05
2022-12-09T03:27:06.569Z,70.30
2022-12-09T03:29:38.819Z,70.20
2022-12-09T03:32:09.142Z,69.91
2022-12-09T03:34:42.384Z,69.41
2022-12-09T03:37:12.132Z,69.02
2022-12-09T03:39:42.428Z,68.92
2022-12-09T03:42:21.380Z,68.86
2022-12-09T03:45:00.423Z,68.99
2022-12-09T03:47:27.813Z,69.34
2022-12-09T03:49:55.314Z,69.33
2022-12-09T03:52:58.821Z,68.62
2022-12-09T03:55:46.373Z,68.41
2022-12-09T03:58:15.889Z,69.10
2022-12-09T04:00:43.837Z,68.94
2022-12-09T04:03:14.759Z,69.28
2022-12-09T04:05:43.218Z,69.81
2022-12-09T04:08:10.759Z,69.99
2022-12-09T04:10:37.402Z,70.09
2022-12-09T04:13:04.005Z,70.10
2022-12-09T04:15:30.980Z,70.11
2022-12-09T04:17:57.530Z,70.28
2022-12-09T04:20:24.033Z,70.19
2022-12-09T04:22:50.537Z,70.19
2022-12-09T04:25:17.503Z,69.81
2022-12-09T04:27:44.308Z,69.21
2022-12-09T04:30:11.983Z,69.46
2022-12-09T04:32:38.951Z,69.84
2022-12-09T04:35:06.268Z,69.75
2022-12-09T04:37:33.382Z,69.58
2022-12-09T04:40:00.241Z,69.90
2022-12-09T04:42:29.049Z,70.15
2022-12-09T04:44:55.866Z,70.34
2022-12-09T04:47:22.439Z,70.39
2022-12-09T04:49:49.688Z,70.06
2022-12-09T04:52:19.895Z,69.38
2022-12-09T04:54:46.443Z,68.94
2022-12-09T04:57:13.140Z,68.45
2022-12-09T04:59:39.629Z,68.12
2022-12-09T05:02:06.480Z,68.04
2022-12-09T05:04:33.650Z,67.86
2022-12-09T05:07:00.453Z,68.05
2022-12-09T05:09:27.398Z,67.94
2022-12-09T05:11:58.122Z,68.43
2022-12-09T05:14:25.260Z,68.91
2022-12-09T05:16:52.268Z,69.31
2022-12-09T05:19:18.906Z,69.30
2022-12-09T05:21:46.417Z,68.72
2022-12-09T05:24:13.178Z,68.31
2022-12-09T05:26:40.050Z,67.97
2022-12-09T05:29:07.015Z,68.60
2022-12-09T05:31:33.628Z,68.77
2022-12-09T05:34:00.767Z,69.06
2022-12-09T05:36:27.804Z,68.92
2022-12-09T05:38:55.471Z,68.90
2022-12-09T05:41:23.813Z,68.92
2022-12-09T05:43:51.962Z,68.49
2022-12-09T05:46:19.337Z,68.61
2022-12-09T05:48:54.830Z,68.43
2022-12-09T05:51:28.102Z,68.55
2022-12-09T05:54:00.161Z,68.36
2022-12-09T05:56:27.455Z,67.81
2022-12-09T05:58:55.439Z,67.91
2022-12-09T06:01:23.633Z,68.35
2022-12-09T06:03:52.104Z,68.73
2022-12-09T06:06:22.945Z,69.05
2022-12-09T06:08:50.129Z,68.97
2022-12-09T06:11:34.896Z,68.93
2022-12-09T06:14:01.576Z,69.53
2022-12-09T06:16:29.279Z,69.18
2022-12-09T06:18:56.172Z,68.28
2022-12-09T06:21:23.661Z,68.10
2022-12-09T06:23:51.582Z,67.86
2022-12-09T06:26:29.912Z,68.14
2022-12-09T06:28:57.585Z,68.57
2022-12-09T06:31:26.009Z,69.08
2022-12-09T06:33:55.904Z,69.53
2022-12-09T06:36:26.086Z,69.30
2022-12-09T06:38:53.299Z,69.02
2022-12-09T06:41:20.113Z,68.33
2022-12-09T06:43:46.825Z,68.52
2022-12-09T06:46:21.231Z,68.43
2022-12-09T06:48:48.160Z,68.69
2022-12-09T06:51:17.056Z,68.27
2022-12-09T06:53:44.927Z,68.42
2022-12-09T06:56:13.658Z,68.10
2022-12-09T06:58:45.857Z,68.04
2022-12-09T07:01:14.221Z,67.92
2022-12-09T07:03:44.129Z,67.88
2022-12-09T07:06:37.315Z,67.95
2022-12-09T07:09:17.832Z,68.48
2022-12-09T07:11:51.479Z,68.77
2022-12-09T07:14:20.260Z,69.53
2022-12-09T07:16:47.998Z,69.62
2022-12-09T07:19:21.289Z,69.48
2022-12-09T07:21:49.650Z,69.83
2022-12-09T07:24:19.236Z,69.78
2022-12-09T07:26:46.378Z,69.77
2022-12-09T07:29:12.979Z,69.54
2022-12-09T07:31:39.949Z,69.76
2022-12-09T07:34:07.206Z,69.63
2022-12-09T07:36:35.821Z,69.26
2022-12-09T07:39:07.596Z,68.74
2022-12-09T07:41:34.696Z,69.04
2022-12-09T07:44:01.384Z,68.56
2022-12-09T07:46:28.563Z,68.84
2022-12-09T07:48:57.384Z,68.97
2022-12-09T07:51:26.000Z,68.50
2022-12-09T07:53:53.802Z,68.10
2022-12-09T07:56:22.386Z,68.18
2022-12-09T07:58:53.171Z,68.79
2022-12-09T08:01:24.675Z,68.45
2022-12-09T08:03:52.397Z,68.32
2022-12-09T08:06:22.906Z,68.28
2022-12-09T08:08:51.136Z,68.43
2022-12-09T08:11:22.562Z,68.70
2022-12-09T08:13:50.302Z,68.98
2022-12-09T08:16:21.489Z,69.31
2022-12-09T08:18:49.865Z,69.16
2022-12-09T08:21:30.719Z,68.49
2022-12-09T08:24:03.167Z,67.81
2022-12-09T08:26:37.544Z,67.62
2022-12-09T08:29:11.117Z,67.10
2022-12-09T08:31:41.595Z,67.30
2022-12-09T08:34:09.134Z,67.55
2022-12-09T08:36:37.016Z,67.30
2022-12-09T08:39:04.232Z,68.16
2022-12-09T08:41:38.950Z,68.38
2022-12-09T08:44:13.656Z,67.89
2022-12-09T08:46:44.522Z,67.28
2022-12-09T08:49:12.721Z,67.04
2022-12-09T08:51:39.863Z,66.35
2022-12-09T08:54:06.961Z,66.89
2022-12-09T08:56:34.367Z,67.19
2022-12-09T08:59:01.351Z,67.80
2022-12-09T09:01:35.813Z,68.21
2022-12-09T09:04:08.561Z,68.30
2022-12-09T09:06:39.414Z,68.89
2022-12-09T09:09:09.284Z,69.29
2022-12-09T09:11:40.373Z,69.02
2022-12-09T09:14:10.180Z,68.87
2022-12-09T09:16:40.837Z,68.52
2022-12-09T09:19:08.917Z,67.95
2022-12-09T09:21:36.087Z,67.71
2022-12-09T09:24:10.363Z,68.42
2022-12-09T09:26:41.803Z,69.19
2022-12-09T09:29:12.596Z,68.80
2022-12-09T09:31:39.956Z,69.18
2022-12-09T09:34:07.387Z,68.92
2022-12-09T09:36:34.712Z,69.27
2022-12-09T09:39:01.541Z,68.84
2022-12-09T09:41:40.239Z,68.13
2022-12-09T09:44:25.647Z,68.23
2022-12-09T09:46:56.543Z,68.82
2022-12-09T09:49:45.673Z,69.75
2022-12-09T09:52:23.313Z,69.44
2022-12-09T09:54:52.013Z,69.12
2022-12-09T09:57:27.622Z,69.75
2022-12-09T10:00:22.877Z,70.05
2022-12-09T10:03:10.636Z,69.77
2022-12-09T10:06:22.798Z,70.00
2022-12-09T10:09:19.844Z,70.75
2022-12-09T10:12:17.602Z,71.34
2022-12-09T10:15:18.845Z,71.50
2022-12-09T10:18:14.583Z,70.55
2022-12-09T10:20:42.477Z,70.50
2022-12-09T10:23:16.434Z,70.59
2022-12-09T10:25:58.360Z,70.71
2022-12-09T10:28:37.993Z,71.00
2022-12-09T10:31:05.371Z,70.78
2022-12-09T10:33:37.437Z,70.31
2022-12-09T10:36:07.751Z,70.34
2022-12-09T10:38:41.264Z,69.88
2022-12-09T10:41:52.524Z,69.40
2022-12-09T10:44:24.078Z,69.32
2022-12-09T10:47:30.877Z,69.49
2022-12-09T10:49:59.374Z,69.45
2022-12-09T10:52:37.020Z,69.69
2022-12-09T10:55:04.433Z,69.63
2022-12-09T10:57:31.299Z,69.57
2022-12-09T11:00:08.745Z,69.86
2022-12-09T11:02:35.936Z,69.86
2022-12-09T11:05:25.477Z,69.60
2022-12-09T11:07:55.252Z,69.86
2022-12-09T11:10:26.810Z,69.66
2022-12-09T11:13:08.285Z,69.95
2022-12-09T11:15:45.241Z,69.24
2022-12-09T11:18:25.037Z,69.27
2022-12-09T11:21:06.226Z,69.13
2022-12-09T11:23:35.706Z,69.16
2022-12-09T11:26:21.728Z,69.06
2022-12-09T11:29:04.472Z,68.96
2022-12-09T11:31:38.214Z,68.79
2022-12-09T11:34:23.088Z,68.79
2022-12-09T11:36:57.692Z,68.81
2022-12-09T11:39:35.421Z,68.52
2022-12-09T11:42:20.675Z,68.60
2022-12-09T11:45:01.909Z,68.39
2022-12-09T11:48:21.166Z,68.59
2022-12-09T11:50:34.344Z,68.82
2022-12-09T11:53:11.431Z,68.80
2022-12-09T11:56:15.917Z,68.60
2022-12-09T11:58:50.244Z,68.37
2022-12-09T12:02:01.378Z,68.14
2022-12-09T12:04:40.120Z,68.03
2022-12-09T12:07:18.021Z,68.36
2022-12-09T12:09:57.325Z,68.42
2022-12-09T12:13:20.044Z,68.63
2022-12-09T12:16:07.265Z,68.79
2022-12-09T12:18:47.532Z,69.42
2022-12-09T12:21:31.953Z,69.37
2022-12-09T12:24:04.450Z,69.29
2022-12-09T12:27:11.856Z,69.20
2022-12-09T12:30:02.595Z,69.22
2022-12-09T12:32:41.148Z,68.89
2022-12-09T12:35:45.919Z,68.97
2022-12-09T12:38:30.366Z,68.64
2022-12-09T12:41:22.053Z,68.64
2022-12-09T12:44:38.039Z,68.72
2022-12-09T12:47:33.098Z,68.53
2022-12-09T12:50:34.868Z,68.54
2022-12-09T12:53:18.500Z,68.23
2022-12-09T12:55:51.377Z,68.36
2022-12-09T12:59:01.645Z,68.03
2022-12-09T13:01:55.754Z,68.15
2022-12-09T13:04:40.820Z,68.22
2022-12-09T13:07:33.573Z,67.85
2022-12-09T13:10:14.888Z,67.87
2022-12-09T13:12:54.549Z,68.24
2022-12-09T13:15:33.520Z,67.71
2022-12-09T13:18:15.033Z,67.71
2022-12-09T13:20:53.683Z,67.17
2022-12-09T13:24:08.485Z,67.47
2022-12-09T13:27:19.446Z,67.75
2022-12-09T13:30:02.973Z,68.25
2022-12-09T13:33:18.289Z,67.76
2022-12-09T13:36:06.093Z,67.51
2022-12-09T13:38:36.362Z,68.24
2022-12-09T13:41:30.576Z,66.63
2022-12-09T13:44:09.677Z,67.14
2022-12-09T13:46:36.531Z,67.21
2022-12-09T13:49:24.568Z,66.50
2022-12-09T13:51:54.887Z,67.37
2022-12-09T13:54:28.506Z,67.04
2022-12-09T13:57:06.857Z,66.24
2022-12-09T13:59:52.789Z,65.73
2022-12-09T14:02:31.398Z,66.30
2022-12-09T14:05:11.993Z,65.92
2022-12-09T14:07:50.247Z,66.38
2022-12-09T14:10:37.776Z,67.19
2022-12-09T14:13:24.165Z,67.45
2022-12-09T14:16:45.112Z,67.58
2022-12-09T14:19:23.671Z,67.04
2022-12-09T14:22:25.128Z,66.71
2022-12-09T14:25:19.044Z,66.62
2022-12-09T14:28:10.090Z,66.27
2022-12-09T14:30:48.891Z,65.45
2022-12-09T14:33:33.498Z,65.38
2022-12-09T14:36:26.081Z,65.43
2022-12-09T14:39:26.001Z,66.32
2022-12-09T14:42:06.140Z,66.45
2022-12-09T14:44:59.537Z,66.53
2022-12-09T14:47:33.036Z,67.50
2022-12-09T14:50:16.901Z,67.41
2022-12-09T14:53:03.033Z,67.29
2022-12-09T14:55:36.843Z,66.99
2022-12-09T14:58:04.513Z,67.05
2022-12-09T15:00:40.743Z,67.11
2022-12-09T15:03:45.271Z,67.11
2022-12-09T15:06:18.623Z,67.31
2022-12-09T15:08:46.781Z,67.10
2022-12-09T15:11:17.392Z,67.31
2022-12-09T15:13:47.964Z,67.36
2022-12-09T15:16:23.985Z,67.78
2022-12-09T15:18:53.533Z,68.31
2022-12-09T15:21:31.717Z,68.93
2022-12-09T15:24:00.797Z,69.42
2022-12-09T15:26:32.098Z,69.34
2022-12-09T15:29:00.986Z,68.70
2022-12-09T15:31:30.644Z,68.44
2022-12-09T15:34:01.016Z,68.26
2022-12-09T15:36:35.722Z,68.01
2022-12-09T15:39:11.164Z,68.19
2022-12-09T15:42:03.547Z,68.31
2022-12-09T15:44:39.623Z,68.54
2022-12-09T15:47:24.670Z,68.83
2022-12-09T15:50:03.680Z,69.13
2022-12-09T15:52:41.588Z,69.31
2022-12-09T15:55:17.246Z,70.19
2022-12-09T15:57:45.517Z,69.69
2022-12-09T16:00:13.356Z,69.47
2022-12-09T16:02:41.153Z,69.60
2022-12-09T16:05:10.239Z,69.72
2022-12-09T16:07:38.223Z,69.95
2022-12-09T16:10:12.545Z,70.43
2022-12-09T16:12:41.326Z,70.29
2022-12-09T16:15:12.134Z,70.15
2022-12-09T16:17:55.061Z,69.70
2022-12-09T16:20:36.020Z,69.97
2022-12-09T16:23:05.739Z,69.58
2022-12-09T16:25:43.312Z,69.17
2022-12-09T16:28:24.616Z,69.08
2022-12-09T16:31:00.590Z,68.96
2022-12-09T16:33:31.790Z,68.98
2022-12-09T16:36:06.526Z,68.69
2022-12-09T16:38:35.481Z,69.03
2022-12-09T16:41:10.909Z,69.01
2022-12-09T16:43:57.923Z,69.43
2022-12-09T16:46:27.513Z,69.25
2022-12-09T16:48:54.045Z,69.11
2022-12-09T16:51:24.991Z,68.82
2022-12-09T16:53:54.132Z,68.80
2022-12-09T16:56:27.832Z,68.70
2022-12-09T16:58:55.761Z,68.73
2022-12-09T17:01:31.818Z,69.07
2022-12-09T17:04:10.396Z,69.53
2022-12-09T17:06:36.879Z,69.86
2022-12-09T17:09:03.800Z,69.77
2022-12-09T17:11:30.308Z,69.95
2022-12-09T17:13:56.849Z,69.70
2022-12-09T17:16:25.821Z,69.97
2022-12-09T17:18:52.862Z,69.80
2022-12-09T17:21:19.980Z,70.39
2022-12-09T17:23:47.604Z,70.34
2022-12-09T17:26:18.146Z,70.44
2022-12-09T17:28:45.991Z,70.09
2022-12-09T17:31:20.343Z,70.33
2022-12-09T17:33:47.629Z,70.17
2022-12-09T17:36:16.163Z,70.05
2022-12-09T17:38:43.578Z,70.40
2022-12-09T17:41:18.797Z,70.23
2022-12-09T17:43:46.279Z,70.41
2022-12-09T17:46:13.816Z,70.21
2022-12-09T17:48:41.688Z,70.21
2022-12-09T17:51:12.651Z,70.26
2022-12-09T17:53:47.892Z,70.60
2022-12-09T17:56:25.917Z,70.31
2022-12-09T17:59:04.629Z,70.31
2022-12-09T18:01:33.856Z,70.25
2022-12-09T18:04:06.386Z,70.03
2022-12-09T18:06:39.700Z,70.32
2022-12-09T18:09:12.521Z,69.61
2022-12-09T18:11:39.623Z,69.42
2022-12-09T18:14:07.720Z,69.50
2022-12-09T18:16:34.474Z,69.46
2022-12-09T18:19:15.330Z,69.48
2022-12-09T18:21:43.399Z,69.99
2022-12-09T18:24:10.602Z,70.15
2022-12-09T18:26:41.578Z,70.35
2022-12-09T18:29:14.375Z,70.93
2022-12-09T18:31:42.061Z,70.99
2022-12-09T18:34:08.635Z,71.15
2022-12-09T18:36:35.252Z,70.46
2022-12-09T18:39:07.269Z,69.79
2022-12-09T18:41:34.494Z,69.84
2022-12-09T18:44:06.351Z,69.27
2022-12-09T18:46:37.253Z,69.08
2022-12-09T18:49:07.345Z,68.46
2022-12-09T18:51:34.623Z,68.67
2022-12-09T18:54:03.657Z,69.00
2022-12-09T18:56:30.446Z,68.96
2022-12-09T18:59:06.552Z,68.45
2022-12-09T19:01:38.748Z,68.77
2022-12-09T19:04:07.249Z,68.85
2022-12-09T19:06:37.955Z,68.58
2022-12-09T19:09:17.799Z,68.68
2022-12-09T19:11:46.464Z,68.79
2022-12-09T19:14:15.289Z,69.29
2022-12-09T19:16:43.005Z,70.26
2022-12-09T19:19:17.020Z,69.62
2022-12-09T19:21:44.528Z,69.95
2022-12-09T19:24:18.797Z,69.67
2022-12-09T19:26:45.819Z,69.99
2022-12-09T19:29:14.501Z,69.67
2022-12-09T19:31:44.944Z,69.99
2022-12-09T19:34:20.029Z,70.59
2022-12-09T19:36:51.833Z,70.18
2022-12-09T19:39:38.377Z,70.13
2022-12-09T19:42:05.316Z,70.26
2022-12-09T19:44:59.733Z,69.78
2022-12-09T19:47:18.316Z,69.64
2022-12-09T19:49:44.883Z,69.44
2022-12-09T19:52:12.313Z,68.83
2022-12-09T19:54:39.080Z,68.86
2022-12-09T19:57:05.553Z,69.90
2022-12-09T19:59:32.062Z,69.84
2022-12-09T20:01:58.644Z,70.76
2022-12-09T20:04:48.153Z,70.77
2022-12-09T20:07:13.023Z,70.85
2022-12-09T20:09:39.681Z,71.09
2022-12-09T20:12:06.325Z,70.47
2022-12-09T20:14:33.013Z,71.01
2022-12-09T20:16:59.529Z,70.52
2022-12-09T20:19:33.513Z,70.74
2022-12-09T20:22:00.012Z,70.83
2022-12-09T20:24:26.710Z,70.94
2022-12-09T20:26:53.233Z,70.47
2022-12-09T20:31:55.986Z,70.48
2022-12-09T20:34:24.775Z,70.82
2022-12-09T20:36:51.362Z,70.30
2022-12-09T20:39:21.135Z,69.90
2022-12-09T20:41:48.556Z,69.75
2022-12-09T20:44:16.706Z,69.77
2022-12-09T20:46:50.231Z,70.42
2022-12-09T20:49:20.074Z,70.10
2022-12-09T20:51:49.110Z,69.89
2022-12-09T20:54:16.231Z,69.71
2022-12-09T20:56:42.792Z,69.06
2022-12-09T20:59:13.399Z,68.98
2022-12-09T21:01:40.550Z,68.88
2022-12-09T21:04:08.250Z,68.51
2022-12-09T21:06:38.608Z,68.78
2022-12-09T21:09:10.039Z,69.07
2022-12-09T21:11:37.084Z,68.85
2022-12-09T21:14:06.652Z,69.05
2022-12-09T21:16:39.249Z,69.14
2022-12-09T21:19:10.226Z,68.85
2022-12-09T21:21:42.703Z,68.83
2022-12-09T21:24:14.830Z,69.30
2022-12-09T21:26:41.771Z,69.18
2022-12-09T21:29:10.939Z,68.90
2022-12-09T21:31:40.872Z,68.68
2022-12-09T21:34:10.715Z,69.59
2022-12-09T21:36:43.590Z,69.95
2022-12-09T21:39:15.791Z,69.80
2022-12-09T21:41:43.545Z,69.65
2022-12-09T21:44:15.982Z,69.03
2022-12-09T21:46:42.983Z,69.04
2022-12-09T21:49:10.309Z,69.30
2022-12-09T21:51:36.803Z,69.49
2022-12-09T21:54:04.517Z,69.06
2022-12-09T21:56:34.950Z,69.26
2022-12-09T21:59:03.236Z,69.59
2022-12-09T22:01:41.953Z,69.04
2022-12-09T22:04:15.946Z,69.11
2022-12-09T22:06:49.912Z,68.65
2022-12-09T22:09:20.552Z,68.71
2022-12-09T22:11:50.610Z,69.29
2022-12-09T22:14:17.486Z,69.07
2022-12-09T22:16:46.176Z,68.78
2022-12-09T22:19:18.277Z,68.37
2022-12-09T22:21:45.683Z,68.84
2022-12-09T22:24:13.053Z,69.47
2022-12-09T22:26:40.151Z,69.46
2022-12-09T22:29:07.852Z,69.67
2022-12-09T22:31:37.955Z,69.80
2022-12-09T22:34:13.370Z,69.73
2022-12-09T22:36:41.057Z,69.36
2022-12-09T22:39:12.023Z,69.24
2022-12-09T22:41:38.560Z,68.93
2022-12-09T22:44:05.200Z,68.48
2022-12-09T22:46:33.775Z,68.34
2022-12-09T22:49:04.861Z,68.96
2022-12-09T22:51:36.173Z,69.10
2022-12-09T22:54:07.978Z,69.45
2022-12-09T22:56:39.503Z,69.29
2022-12-09T22:59:06.896Z,69.28
2022-12-09T23:01:37.196Z,69.33
2022-12-09T23:04:06.708Z,69.06
2022-12-09T23:06:36.993Z,68.71
2022-12-09T23:09:07.003Z,69.33
2022-12-09T23:11:34.174Z,69.43
2022-12-09T23:14:01.188Z,69.35
2022-12-09T23:16:28.591Z,69.83
2022-12-09T23:18:57.567Z,69.91
2022-12-09T23:21:33.697Z,70.10
2022-12-09T23:24:05.623Z,70.06
2022-12-09T23:26:36.926Z,69.82
2022-12-09T23:29:06.927Z,69.83
2022-12-09T23:31:36.513Z,69.83
2022-12-09T23:34:08.313Z,69.32
2022-12-09T23:36:39.328Z,68.77
2022-12-09T23:39:10.938Z,68.32
2022-12-09T23:41:39.974Z,68.54
2022-12-09T23:44:13.031Z,68.54
2022-12-09T23:46:39.887Z,69.23
2022-12-09T23:49:07.516Z,69.54
2022-12-09T23:51:38.261Z,69.48
2022-12-09T23:54:07.147Z,69.22
2022-12-09T23:56:39.444Z,68.98
2022-12-09T23:59:10.671Z,68.19
